Time;durP1;ratioP1;P1;durP2;ratioP2;P2;SDS_P1;SDS_P2;PMS_P1;PMS_P2;Temp;Humidity;BMP_temperature;BMP_pressure;BME280_temperature;BME280_humidity;BME280_pressure;Samples;Min_cycle;Max_cycle;Signal;HPM_P1;HPM_P2
2023/09/15 00:01:02;;;;;;;8.48;4.13;;;;;;;;;;5106730;28;20079;-75
2023/09/15 00:03:28;;;;;;;7.85;4.47;;;;;;;;;;5111258;28;20559;-75
2023/09/15 00:05:55;;;;;;;6.22;4.32;;;;;;;;;;5114012;28;20046;-75
2023/09/15 00:08:21;;;;;;;9.57;4.03;;;;;;;;;;5108532;28;20119;-75
2023/09/15 00:10:48;;;;;;;7.82;4.25;;;;;;;;;;5103177;28;20070;-75
2023/09/15 00:13:15;;;;;;;7.38;4.28;;;;;;;;;;5112799;27;20391;-75
2023/09/15 00:15:42;;;;;;;9.30;4.75;;;;;;;;;;5105343;28;20503;-75
2023/09/15 00:18:09;;;;;;;5.30;3.92;;;;;;;;;;5103083;28;20121;-75
2023/09/15 00:20:35;;;;;;;7.32;4.55;;;;;;;;;;5102776;28;20487;-75
2023/09/15 00:23:02;;;;;;;10.25;4.38;;;;;;;;;;5104881;28;20044;-75
2023/09/15 00:25:29;;;;;;;8.27;4.85;;;;;;;;;;5109236;28;20047;-75
2023/09/15 00:27:59;;;;;;;6.95;4.43;;;;;;;;;;5112339;28;20386;-75
2023/09/15 00:30:26;;;;;;;7.82;4.28;;;;;;;;;;5099276;28;20040;-75
2023/09/15 00:32:52;;;;;;;7.47;4.60;;;;;;;;;;5108372;28;20036;-75
2023/09/15 00:35:20;;;;;;;9.10;4.03;;;;;;;;;;5112441;28;20047;-75
2023/09/15 00:37:47;;;;;;;8.57;4.20;;;;;;;;;;5111219;28;20087;-75
2023/09/15 00:40:13;;;;;;;6.53;4.40;;;;;;;;;;5099209;28;20051;-75
2023/09/15 00:42:42;;;;;;;9.45;4.22;;;;;;;;;;5105272;28;20039;-75
2023/09/15 00:45:09;;;;;;;7.00;4.45;;;;;;;;;;5106131;28;20138;-75
2023/09/15 00:47:36;;;;;;;7.13;4.30;;;;;;;;;;5096840;28;20094;-75
2023/09/15 00:50:05;;;;;;;7.10;4.57;;;;;;;;;;5107350;28;20056;-75
2023/09/15 00:52:33;;;;;;;7.43;4.60;;;;;;;;;;5105196;28;20487;-75
2023/09/15 00:55:00;;;;;;;7.35;4.40;;;;;;;;;;5113300;28;20081;-75
2023/09/15 00:57:26;;;;;;;9.00;4.25;;;;;;;;;;5115271;28;20402;-75
2023/09/15 00:59:52;;;;;;;6.57;4.28;;;;;;;;;;5114082;28;20032;-75
2023/09/15 01:02:19;;;;;;;8.02;4.22;;;;;;;;;;5110626;28;20127;-75
2023/09/15 01:04:45;;;;;;;10.70;4.57;;;;;;;;;;5103024;28;20054;-75
2023/09/15 01:07:12;;;;;;;7.43;4.60;;;;;;;;;;5105487;28;20062;-75
2023/09/15 01:09:39;;;;;;;7.10;4.43;;;;;;;;;;5107041;28;20040;-75
2023/09/15 01:12:06;;;;;;;6.63;4.40;;;;;;;;;;5098085;27;20076;-75
2023/09/15 01:14:33;;;;;;;7.93;4.15;;;;;;;;;;5107447;28;20050;-76
2023/09/15 01:17:02;;;;;;;7.53;4.43;;;;;;;;;;5106925;28;20062;-75
2023/09/15 01:19:31;;;;;;;8.55;4.32;;;;;;;;;;5114503;27;20082;-75
2023/09/15 01:22:01;;;;;;;6.75;4.40;;;;;;;;;;5110093;28;20134;-75
2023/09/15 01:24:57;;;;;;;8.63;5.05;;;;;;;;;;5105814;28;20040;-75
2023/09/15 01:27:39;;;;;;;6.30;4.30;;;;;;;;;;5085786;28;20109;-75
2023/09/15 01:30:06;;;;;;;7.65;4.40;;;;;;;;;;5097392;27;20473;-75
2023/09/15 01:32:34;;;;;;;7.72;4.50;;;;;;;;;;5103601;28;20092;-75
2023/09/15 01:35:03;;;;;;;10.65;4.47;;;;;;;;;;5099402;28;20050;-75
2023/09/15 01:37:29;;;;;;;7.28;4.35;;;;;;;;;;5102889;28;20459;-75
2023/09/15 01:39:55;;;;;;;7.55;4.90;;;;;;;;;;5099641;28;20105;-75
2023/09/15 01:42:21;;;;;;;6.93;4.72;;;;;;;;;;5111727;28;20050;-75
2023/09/15 01:44:47;;;;;;;6.53;4.53;;;;;;;;;;5111672;28;20134;-75
2023/09/15 01:47:18;;;;;;;8.00;4.97;;;;;;;;;;5111081;28;20044;-75
2023/09/15 01:49:45;;;;;;;8.43;4.90;;;;;;;;;;5111750;28;20036;-75
2023/09/15 01:52:11;;;;;;;7.40;5.00;;;;;;;;;;5106963;28;20429;-75
2023/09/15 01:54:37;;;;;;;7.32;5.18;;;;;;;;;;5108564;28;20402;-75
2023/09/15 01:57:04;;;;;;;8.77;5.07;;;;;;;;;;5112035;28;20044;-75
2023/09/15 01:59:30;;;;;;;11.48;5.70;;;;;;;;;;5111490;28;20035;-76
2023/09/15 02:01:56;;;;;;;9.32;5.38;;;;;;;;;;5103291;28;20548;-75
2023/09/15 02:04:23;;;;;;;11.98;5.65;;;;;;;;;;5099725;28;20044;-75
2023/09/15 02:06:49;;;;;;;10.18;6.65;;;;;;;;;;5111689;28;20039;-75
2023/09/15 02:09:15;;;;;;;11.27;6.10;;;;;;;;;;5102151;28;20047;-75
2023/09/15 02:11:41;;;;;;;15.27;6.93;;;;;;;;;;5107468;28;20041;-75
2023/09/15 02:14:07;;;;;;;12.57;7.18;;;;;;;;;;5094596;28;20062;-75
2023/09/15 02:16:33;;;;;;;12.52;7.40;;;;;;;;;;5099801;28;20442;-75
2023/09/15 02:19:00;;;;;;;15.27;7.28;;;;;;;;;;5112094;28;20040;-75
2023/09/15 02:21:26;;;;;;;13.55;7.70;;;;;;;;;;5105835;28;20054;-75
2023/09/15 02:23:52;;;;;;;16.80;8.02;;;;;;;;;;5109155;28;20032;-75
2023/09/15 02:26:21;;;;;;;14.80;8.18;;;;;;;;;;5113631;28;20434;-75
2023/09/15 02:28:47;;;;;;;11.32;7.68;;;;;;;;;;5109543;28;20069;-75
2023/09/15 02:31:13;;;;;;;12.55;8.15;;;;;;;;;;5106850;28;20044;-75
2023/09/15 02:33:39;;;;;;;13.82;7.95;;;;;;;;;;5110360;28;20043;-75
2023/09/15 02:36:05;;;;;;;14.45;8.25;;;;;;;;;;5110873;28;20551;-75
2023/09/15 02:38:31;;;;;;;15.27;8.18;;;;;;;;;;5098114;28;20098;-75
2023/09/15 02:40:57;;;;;;;11.93;7.97;;;;;;;;;;5103780;28;20501;-75
2023/09/15 02:43:23;;;;;;;13.23;7.32;;;;;;;;;;5106508;28;20502;-75
2023/09/15 02:45:49;;;;;;;12.32;7.43;;;;;;;;;;5099778;28;20072;-75
2023/09/15 02:48:15;;;;;;;12.13;7.05;;;;;;;;;;5112025;28;20086;-75
2023/09/15 02:50:42;;;;;;;14.55;7.70;;;;;;;;;;5113229;28;20471;-75
2023/09/15 02:53:08;;;;;;;13.52;7.25;;;;;;;;;;5104618;28;20046;-75
2023/09/15 02:55:37;;;;;;;11.60;6.72;;;;;;;;;;5109716;28;20540;-75
2023/09/15 02:58:04;;;;;;;13.32;7.03;;;;;;;;;;5102972;28;20127;-75
2023/09/15 03:00:30;;;;;;;10.38;6.30;;;;;;;;;;5106815;28;20032;-75
2023/09/15 03:02:57;;;;;;;12.57;6.97;;;;;;;;;;5097914;28;20055;-75
2023/09/15 03:05:23;;;;;;;12.50;6.55;;;;;;;;;;5101485;28;20097;-75
2023/09/15 03:07:49;;;;;;;10.32;6.35;;;;;;;;;;5111219;28;20138;-75
2023/09/15 03:10:15;;;;;;;12.10;6.50;;;;;;;;;;5098448;28;20036;-75
2023/09/15 03:12:41;;;;;;;11.40;6.70;;;;;;;;;;5104309;28;20036;-75
2023/09/15 03:15:08;;;;;;;13.80;6.47;;;;;;;;;;5106782;28;20044;-75
2023/09/15 03:17:34;;;;;;;12.45;6.22;;;;;;;;;;5110384;28;20092;-75
2023/09/15 03:20:06;;;;;;;12.00;6.72;;;;;;;;;;5112727;28;20516;-75
2023/09/15 03:22:32;;;;;;;12.05;6.93;;;;;;;;;;5111498;28;20047;-75
2023/09/15 03:24:58;;;;;;;8.88;6.40;;;;;;;;;;5111117;28;20062;-75
2023/09/15 03:27:24;;;;;;;8.52;6.25;;;;;;;;;;5101314;28;20036;-75
2023/09/15 03:29:50;;;;;;;8.65;5.95;;;;;;;;;;5112838;28;20036;-75
2023/09/15 03:32:16;;;;;;;12.05;6.30;;;;;;;;;;5103880;28;20040;-75
2023/09/15 03:34:42;;;;;;;8.32;6.15;;;;;;;;;;5100235;28;20066;-75
2023/09/15 03:37:08;;;;;;;8.90;6.22;;;;;;;;;;5112542;28;20526;-75
2023/09/15 03:39:34;;;;;;;9.82;5.93;;;;;;;;;;5112675;28;20115;-75
2023/09/15 03:42:01;;;;;;;9.00;5.88;;;;;;;;;;5112889;28;20093;-75
2023/09/15 03:44:27;;;;;;;7.88;5.45;;;;;;;;;;5111795;28;20040;-75
2023/09/15 03:46:53;;;;;;;8.10;6.18;;;;;;;;;;5108234;28;20039;-75
2023/09/15 03:49:19;;;;;;;8.75;5.97;;;;;;;;;;5107926;28;20527;-75
2023/09/15 03:51:45;;;;;;;10.65;6.05;;;;;;;;;;5124017;28;20052;-75
2023/09/15 03:54:11;;;;;;;9.50;5.95;;;;;;;;;;5109469;28;20506;-75
2023/09/15 03:56:37;;;;;;;10.60;6.00;;;;;;;;;;5103994;28;20065;-75
2023/09/15 03:59:06;;;;;;;10.55;5.90;;;;;;;;;;5107751;28;20127;-75
2023/09/15 04:01:32;;;;;;;11.73;6.30;;;;;;;;;;5092386;28;20040;-75
2023/09/15 04:03:59;;;;;;;10.30;5.57;;;;;;;;;;5095596;28;20048;-75
2023/09/15 04:06:25;;;;;;;7.43;5.60;;;;;;;;;;5097850;28;20044;-75
2023/09/15 04:08:52;;;;;;;10.02;6.18;;;;;;;;;;5107851;28;20118;-75
2023/09/15 04:11:18;;;;;;;11.88;6.78;;;;;;;;;;5103509;28;20108;-74
2023/09/15 04:13:44;;;;;;;10.10;6.30;;;;;;;;;;5109537;28;20499;-75
2023/09/15 04:16:10;;;;;;;11.38;5.75;;;;;;;;;;5104900;28;20479;-75
2023/09/15 04:18:36;;;;;;;10.98;6.38;;;;;;;;;;5104553;28;20427;-75
2023/09/15 04:21:02;;;;;;;9.13;5.90;;;;;;;;;;5107473;28;20036;-75
2023/09/15 04:23:28;;;;;;;9.35;5.43;;;;;;;;;;5109264;28;20040;-75
2023/09/15 04:25:54;;;;;;;8.57;5.30;;;;;;;;;;5112299;28;20039;-75
2023/09/15 04:28:20;;;;;;;9.57;6.28;;;;;;;;;;5107646;28;20509;-75
2023/09/15 04:30:46;;;;;;;11.25;5.80;;;;;;;;;;5107498;28;20396;-75
2023/09/15 04:33:12;;;;;;;12.77;5.90;;;;;;;;;;5098769;28;20482;-75
2023/09/15 04:35:38;;;;;;;10.30;5.80;;;;;;;;;;5110768;28;20036;-75
2023/09/15 04:38:06;;;;;;;7.97;5.43;;;;;;;;;;5110312;28;20436;-75
2023/09/15 04:40:32;;;;;;;9.60;5.45;;;;;;;;;;5113045;28;20069;-75
2023/09/15 04:42:59;;;;;;;10.63;6.22;;;;;;;;;;5112021;28;20043;-75
2023/09/15 04:45:25;;;;;;;10.40;5.43;;;;;;;;;;5109293;28;20055;-75
2023/09/15 04:47:52;;;;;;;8.85;5.72;;;;;;;;;;5110309;28;20482;-75
2023/09/15 04:50:18;;;;;;;11.15;6.18;;;;;;;;;;5101265;28;20044;-75
2023/09/15 04:52:44;;;;;;;8.02;5.15;;;;;;;;;;5100153;28;20109;-75
2023/09/15 04:55:11;;;;;;;8.38;5.25;;;;;;;;;;5105130;28;20054;-75
2023/09/15 04:57:37;;;;;;;7.53;5.35;;;;;;;;;;5100395;28;20150;-75
2023/09/15 05:00:11;;;;;;;8.45;5.22;;;;;;;;;;5110101;28;20058;-75
2023/09/15 05:02:37;;;;;;;8.82;5.53;;;;;;;;;;5109665;28;20495;-75
2023/09/15 05:05:03;;;;;;;8.15;5.22;;;;;;;;;;5112079;28;20386;-75
2023/09/15 05:07:30;;;;;;;9.38;6.03;;;;;;;;;;5100164;28;20051;-75
2023/09/15 05:09:56;;;;;;;8.55;5.50;;;;;;;;;;5102850;28;20048;-75
2023/09/15 05:12:22;;;;;;;8.35;5.82;;;;;;;;;;5111059;27;20076;-75
2023/09/15 05:14:48;;;;;;;10.43;5.70;;;;;;;;;;5111822;27;20513;-75
2023/09/15 05:17:14;;;;;;;8.32;5.72;;;;;;;;;;5113773;27;20518;-75
2023/09/15 05:19:40;;;;;;;7.25;5.78;;;;;;;;;;5122721;27;20172;-75
2023/09/15 05:22:06;;;;;;;10.57;6.20;;;;;;;;;;5106618;27;20043;-75
2023/09/15 05:24:32;;;;;;;7.10;5.82;;;;;;;;;;5115376;28;20039;-75
2023/09/15 05:26:58;;;;;;;11.40;5.38;;;;;;;;;;5115031;28;20040;-75
2023/09/15 05:29:24;;;;;;;8.00;5.47;;;;;;;;;;5113080;28;20055;-75
2023/09/15 05:31:50;;;;;;;7.03;5.55;;;;;;;;;;5112278;28;20495;-75
2023/09/15 05:34:16;;;;;;;6.93;5.43;;;;;;;;;;5107025;28;20052;-75
2023/09/15 05:36:43;;;;;;;10.55;6.38;;;;;;;;;;5112690;28;20529;-75
2023/09/15 05:39:09;;;;;;;9.38;5.82;;;;;;;;;;5114883;28;20145;-75
2023/09/15 05:41:35;;;;;;;8.02;5.50;;;;;;;;;;5112972;28;20093;-75
2023/09/15 05:44:01;;;;;;;7.93;5.45;;;;;;;;;;5112582;28;20052;-75
2023/09/15 05:46:27;;;;;;;7.47;5.35;;;;;;;;;;5112804;28;20065;-75
2023/09/15 05:48:53;;;;;;;8.32;5.85;;;;;;;;;;5103861;28;20066;-75
2023/09/15 05:51:19;;;;;;;8.45;5.18;;;;;;;;;;5106744;27;20069;-75
2023/09/15 05:53:46;;;;;;;8.50;6.20;;;;;;;;;;5098187;28;20051;-76
2023/09/15 05:56:13;;;;;;;8.63;6.05;;;;;;;;;;5102782;27;20089;-75
2023/09/15 05:58:39;;;;;;;8.70;5.55;;;;;;;;;;5104632;28;20075;-76
2023/09/15 06:01:06;;;;;;;9.48;5.65;;;;;;;;;;5107268;28;20468;-77
2023/09/15 06:03:32;;;;;;;10.18;5.60;;;;;;;;;;5109953;28;20048;-78
2023/09/15 06:05:58;;;;;;;8.98;5.50;;;;;;;;;;5096498;28;20067;-76
2023/09/15 06:08:24;;;;;;;8.00;5.30;;;;;;;;;;5104752;28;20044;-76
2023/09/15 06:10:51;;;;;;;11.38;5.65;;;;;;;;;;5109036;28;20043;-76
2023/09/15 06:13:17;;;;;;;9.88;5.90;;;;;;;;;;5108128;28;20070;-76
2023/09/15 06:15:43;;;;;;;8.60;5.65;;;;;;;;;;5113056;28;20071;-76
2023/09/15 06:18:09;;;;;;;7.13;5.15;;;;;;;;;;5110310;28;20044;-76
2023/09/15 06:20:35;;;;;;;11.55;5.55;;;;;;;;;;5113347;28;20586;-76
2023/09/15 06:23:01;;;;;;;10.15;4.80;;;;;;;;;;5113429;28;20540;-76
2023/09/15 06:25:27;;;;;;;8.43;5.93;;;;;;;;;;5105598;28;20126;-76
2023/09/15 06:27:53;;;;;;;9.60;5.53;;;;;;;;;;5103616;28;20035;-77
2023/09/15 06:30:19;;;;;;;9.52;5.25;;;;;;;;;;5111578;28;20039;-77
2023/09/15 06:32:45;;;;;;;6.53;5.22;;;;;;;;;;5108407;28;20043;-76
2023/09/15 06:35:13;;;;;;;7.90;4.65;;;;;;;;;;5112853;28;20047;-76
2023/09/15 06:37:39;;;;;;;7.53;4.85;;;;;;;;;;5103217;28;20060;-77
2023/09/15 06:40:06;;;;;;;9.77;5.20;;;;;;;;;;5110590;28;20036;-76
2023/09/15 06:42:32;;;;;;;7.63;5.13;;;;;;;;;;5109577;28;20055;-77
2023/09/15 06:44:58;;;;;;;7.47;5.28;;;;;;;;;;5105929;28;20043;-76
2023/09/15 06:47:24;;;;;;;6.10;4.80;;;;;;;;;;5105063;28;20046;-77
2023/09/15 06:49:50;;;;;;;8.23;5.10;;;;;;;;;;5113346;28;20035;-77
2023/09/15 06:52:17;;;;;;;7.70;5.15;;;;;;;;;;5100844;28;20058;-77
2023/09/15 06:54:43;;;;;;;9.40;5.25;;;;;;;;;;5110807;28;20040;-77
2023/09/15 06:57:09;;;;;;;7.68;5.05;;;;;;;;;;5116574;27;20039;-77
2023/09/15 06:59:35;;;;;;;7.07;5.07;;;;;;;;;;5113650;28;20081;-77
2023/09/15 07:02:02;;;;;;;8.10;5.07;;;;;;;;;;5109801;28;20044;-77
2023/09/15 07:04:29;;;;;;;8.13;5.15;;;;;;;;;;5112247;28;20492;-76
2023/09/15 07:06:55;;;;;;;8.40;5.15;;;;;;;;;;5108533;28;20060;-80
2023/09/15 07:09:22;;;;;;;10.85;4.78;;;;;;;;;;5098686;28;20048;-79
2023/09/15 07:11:48;;;;;;;9.55;4.78;;;;;;;;;;5095682;28;20055;-79
2023/09/15 07:14:14;;;;;;;11.05;5.10;;;;;;;;;;5093020;28;20123;-78
2023/09/15 07:16:41;;;;;;;9.90;5.03;;;;;;;;;;5101709;28;20532;-79
2023/09/15 07:19:07;;;;;;;7.97;4.93;;;;;;;;;;5105165;28;20055;-79
2023/09/15 07:21:33;;;;;;;9.60;5.43;;;;;;;;;;5105627;28;20043;-81
2023/09/15 07:23:59;;;;;;;9.35;4.70;;;;;;;;;;5110618;28;20048;-80
2023/09/15 07:26:26;;;;;;;7.50;4.90;;;;;;;;;;5107905;28;20075;-80
2023/09/15 07:28:53;;;;;;;11.55;5.38;;;;;;;;;;5106505;28;20051;-79
2023/09/15 07:31:20;;;;;;;12.45;5.35;;;;;;;;;;5106108;28;20039;-77
2023/09/15 07:33:46;;;;;;;9.52;4.93;;;;;;;;;;5112152;28;20043;-76
2023/09/15 07:36:12;;;;;;;7.78;4.85;;;;;;;;;;5112606;28;20051;-77
2023/09/15 07:38:38;;;;;;;6.70;4.90;;;;;;;;;;5112672;28;20047;-77
2023/09/15 07:41:04;;;;;;;7.60;4.65;;;;;;;;;;5111124;28;20047;-79
2023/09/15 07:43:30;;;;;;;8.23;5.50;;;;;;;;;;5106024;28;20043;-79
2023/09/15 07:45:56;;;;;;;8.52;4.85;;;;;;;;;;5101533;28;20044;-78
2023/09/15 07:48:23;;;;;;;6.80;4.50;;;;;;;;;;5099951;28;20577;-82
2023/09/15 07:50:50;;;;;;;10.57;4.95;;;;;;;;;;5108614;28;20082;-78
2023/09/15 07:53:16;;;;;;;7.18;4.50;;;;;;;;;;5109094;28;20081;-79
2023/09/15 07:55:43;;;;;;;9.00;4.85;;;;;;;;;;5098511;28;20044;-77
2023/09/15 07:58:09;;;;;;;9.15;4.95;;;;;;;;;;5112145;28;20089;-77
2023/09/15 08:00:35;;;;;;;7.75;5.07;;;;;;;;;;5103039;28;20092;-77
2023/09/15 08:03:01;;;;;;;7.00;4.55;;;;;;;;;;5105700;28;20127;-77
2023/09/15 08:05:27;;;;;;;9.13;5.20;;;;;;;;;;5076314;28;20392;-78
2023/09/15 08:07:53;;;;;;;8.65;4.65;;;;;;;;;;5096342;28;20048;-82
2023/09/15 08:10:21;;;;;;;12.40;4.60;;;;;;;;;;5101478;27;20040;-80
2023/09/15 08:12:52;;;;;;;8.07;4.60;;;;;;;;;;5101070;28;20048;-84
2023/09/15 08:15:18;;;;;;;8.82;4.43;;;;;;;;;;5109153;28;20101;-77
2023/09/15 08:17:44;;;;;;;8.55;4.93;;;;;;;;;;5095788;28;20143;-77
2023/09/15 08:20:11;;;;;;;9.73;5.28;;;;;;;;;;5112242;28;20052;-77
2023/09/15 08:22:41;;;;;;;9.07;4.78;;;;;;;;;;5115867;28;20048;-77
2023/09/15 08:25:07;;;;;;;8.50;4.53;;;;;;;;;;5099747;27;20084;-77
2023/09/15 08:27:34;;;;;;;6.65;4.20;;;;;;;;;;5107331;28;20036;-78
2023/09/15 08:30:00;;;;;;;7.50;4.53;;;;;;;;;;5105718;28;20122;-77
2023/09/15 08:32:27;;;;;;;8.13;4.32;;;;;;;;;;5105813;28;20119;-78
2023/09/15 08:34:54;;;;;;;6.65;4.70;;;;;;;;;;5114976;28;20380;-78
2023/09/15 08:37:20;;;;;;;8.63;4.72;;;;;;;;;;5108346;28;20135;-78
2023/09/15 08:39:46;;;;;;;6.68;4.35;;;;;;;;;;5109669;28;20531;-78
2023/09/15 08:42:23;;;;;;;7.80;4.38;;;;;;;;;;5112891;28;20441;-79
2023/09/15 08:44:50;;;;;;;6.57;4.22;;;;;;;;;;5114324;28;20126;-79
2023/09/15 08:47:17;;;;;;;6.60;4.20;;;;;;;;;;5113099;28;20437;-79
2023/09/15 08:49:43;;;;;;;8.50;4.32;;;;;;;;;;5111296;28;20135;-79
2023/09/15 08:52:09;;;;;;;6.05;3.92;;;;;;;;;;5099510;28;20194;-79
2023/09/15 08:54:36;;;;;;;6.07;3.67;;;;;;;;;;5116615;28;20046;-79
2023/09/15 08:57:02;;;;;;;7.32;4.50;;;;;;;;;;5115725;28;20036;-78
2023/09/15 08:59:28;;;;;;;6.43;3.67;;;;;;;;;;5103905;28;20048;-78
2023/09/15 09:01:54;;;;;;;7.82;3.92;;;;;;;;;;5106011;28;20506;-79
2023/09/15 09:04:20;;;;;;;6.45;4.10;;;;;;;;;;5112009;28;20051;-79
2023/09/15 09:06:47;;;;;;;6.70;4.25;;;;;;;;;;5106581;28;20243;-78
2023/09/15 09:09:14;;;;;;;8.90;4.05;;;;;;;;;;5105797;28;20047;-79
2023/09/15 09:11:40;;;;;;;5.70;3.97;;;;;;;;;;5115698;28;20440;-78
2023/09/15 09:14:11;;;;;;;7.60;4.43;;;;;;;;;;5106592;27;20106;-79
2023/09/15 09:16:43;;;;;;;5.47;4.20;;;;;;;;;;5100497;27;20113;-78
2023/09/15 09:19:10;;;;;;;6.80;4.32;;;;;;;;;;5113758;28;20070;-79
2023/09/15 09:21:36;;;;;;;6.95;4.00;;;;;;;;;;5115294;28;20051;-78
2023/09/15 09:24:03;;;;;;;6.97;3.95;;;;;;;;;;5112670;28;20199;-77
2023/09/15 09:26:29;;;;;;;8.77;4.18;;;;;;;;;;5109327;28;20047;-77
2023/09/15 09:28:57;;;;;;;7.93;3.80;;;;;;;;;;5108353;28;20130;-77
2023/09/15 09:31:24;;;;;;;8.45;4.00;;;;;;;;;;5114476;27;20051;-78
2023/09/15 09:33:50;;;;;;;6.20;4.35;;;;;;;;;;5095654;28;20073;-78
2023/09/15 09:36:17;;;;;;;6.20;4.07;;;;;;;;;;5104284;28;20541;-78
2023/09/15 09:38:47;;;;;;;8.88;4.18;;;;;;;;;;5110531;28;20044;-78
2023/09/15 09:41:14;;;;;;;7.82;4.45;;;;;;;;;;5108366;28;20048;-77
2023/09/15 09:43:42;;;;;;;9.30;4.90;;;;;;;;;;5105010;28;20085;-78
2023/09/15 09:46:09;;;;;;;7.43;4.00;;;;;;;;;;5111506;27;20119;-77
2023/09/15 09:48:39;;;;;;;7.22;4.13;;;;;;;;;;5105285;28;20184;-77
2023/09/15 09:51:05;;;;;;;9.15;4.43;;;;;;;;;;5105257;28;20077;-78
2023/09/15 09:53:33;;;;;;;6.43;4.20;;;;;;;;;;5099229;27;20496;-77
2023/09/15 09:56:03;;;;;;;6.75;4.35;;;;;;;;;;5114160;28;20048;-77
2023/09/15 09:58:31;;;;;;;8.20;4.80;;;;;;;;;;5113713;28;20039;-77
2023/09/15 10:00:58;;;;;;;6.82;4.15;;;;;;;;;;5110711;28;20075;-77
2023/09/15 10:03:24;;;;;;;7.57;4.40;;;;;;;;;;5107934;28;20051;-77
2023/09/15 10:05:51;;;;;;;7.50;4.80;;;;;;;;;;5106544;27;20491;-77
2023/09/15 10:08:17;;;;;;;7.90;4.85;;;;;;;;;;5105082;27;20122;-81
2023/09/15 10:10:44;;;;;;;6.93;4.65;;;;;;;;;;5110217;28;20089;-78
2023/09/15 10:13:17;;;;;;;7.60;4.65;;;;;;;;;;5107801;28;20047;-78
2023/09/15 10:15:43;;;;;;;7.68;4.78;;;;;;;;;;5114389;28;20483;-79
2023/09/15 10:18:12;;;;;;;8.95;4.43;;;;;;;;;;5110573;28;20036;-78
2023/09/15 10:20:39;;;;;;;11.32;4.90;;;;;;;;;;5102658;28;20051;-78
2023/09/15 10:23:06;;;;;;;6.72;4.53;;;;;;;;;;5109326;28;20448;-77
2023/09/15 10:25:42;;;;;;;9.82;4.75;;;;;;;;;;5098534;28;20044;-77
2023/09/15 10:28:10;;;;;;;8.52;4.45;;;;;;;;;;5108364;28;20051;-77
2023/09/15 10:30:36;;;;;;;8.63;4.50;;;;;;;;;;5097688;28;20042;-77
2023/09/15 10:33:03;;;;;;;7.95;4.75;;;;;;;;;;5105550;28;20043;-80
2023/09/15 10:35:29;;;;;;;7.53;4.47;;;;;;;;;;5109307;28;20172;-77
2023/09/15 10:38:02;;;;;;;7.05;4.57;;;;;;;;;;5109502;28;20056;-77
2023/09/15 10:40:29;;;;;;;8.82;4.78;;;;;;;;;;5108459;28;20440;-77
2023/09/15 10:42:55;;;;;;;7.43;4.22;;;;;;;;;;5113878;27;20044;-77
2023/09/15 10:45:22;;;;;;;7.10;4.28;;;;;;;;;;5104623;28;20071;-77
2023/09/15 10:48:00;;;;;;;8.02;4.80;;;;;;;;;;5098641;28;20130;-77
2023/09/15 10:50:39;;;;;;;7.80;5.00;;;;;;;;;;5104193;28;20083;-77
2023/09/15 10:53:10;;;;;;;6.80;4.97;;;;;;;;;;5105693;28;20463;-78
2023/09/15 10:55:37;;;;;;;6.53;4.70;;;;;;;;;;5109482;28;20390;-77
2023/09/15 10:58:04;;;;;;;8.25;4.72;;;;;;;;;;5111388;28;20047;-76
2023/09/15 11:00:31;;;;;;;5.18;4.63;;;;;;;;;;5103537;28;20441;-77
2023/09/15 11:02:57;;;;;;;8.13;5.00;;;;;;;;;;5100884;28;20115;-77
2023/09/15 11:05:23;;;;;;;8.32;4.70;;;;;;;;;;5106311;28;20055;-76
2023/09/15 11:07:49;;;;;;;8.25;5.43;;;;;;;;;;5107329;28;20079;-76
2023/09/15 11:10:16;;;;;;;6.55;4.78;;;;;;;;;;5097957;28;20039;-76
2023/09/15 11:12:42;;;;;;;8.07;5.03;;;;;;;;;;5108679;28;20040;-76
2023/09/15 11:15:08;;;;;;;8.70;4.93;;;;;;;;;;5095725;28;20129;-76
2023/09/15 11:17:35;;;;;;;7.55;4.78;;;;;;;;;;5106898;28;20481;-76
2023/09/15 11:20:05;;;;;;;8.70;4.70;;;;;;;;;;5111827;27;20123;-77
2023/09/15 11:22:33;;;;;;;8.00;5.03;;;;;;;;;;5108537;28;20044;-77
2023/09/15 11:24:59;;;;;;;5.95;4.63;;;;;;;;;;5112026;28;20047;-77
2023/09/15 11:27:25;;;;;;;9.38;5.38;;;;;;;;;;5094907;28;20040;-77
2023/09/15 11:29:51;;;;;;;9.50;5.70;;;;;;;;;;5095437;28;20086;-77
2023/09/15 11:32:17;;;;;;;7.50;4.95;;;;;;;;;;5112984;28;20043;-77
2023/09/15 11:34:44;;;;;;;7.55;5.05;;;;;;;;;;5104452;28;20562;-77
2023/09/15 11:37:10;;;;;;;8.75;5.40;;;;;;;;;;5101589;28;20055;-77
2023/09/15 11:39:36;;;;;;;6.90;5.43;;;;;;;;;;5094425;28;20056;-77
2023/09/15 11:42:09;;;;;;;8.05;5.45;;;;;;;;;;5102352;28;20480;-76
2023/09/15 11:44:35;;;;;;;9.23;5.70;;;;;;;;;;5116747;27;20036;-76
2023/09/15 11:47:02;;;;;;;7.22;5.55;;;;;;;;;;5116232;28;20035;-76
2023/09/15 11:49:30;;;;;;;7.35;5.55;;;;;;;;;;5101055;28;20055;-77
2023/09/15 11:51:57;;;;;;;10.20;5.57;;;;;;;;;;5106752;28;20056;-77
2023/09/15 11:54:24;;;;;;;7.75;5.10;;;;;;;;;;5116155;28;20130;-74
2023/09/15 11:56:51;;;;;;;12.80;5.40;;;;;;;;;;5106975;28;20047;-75
2023/09/15 11:59:17;;;;;;;9.63;5.97;;;;;;;;;;5107183;28;20044;-75
2023/09/15 12:01:45;;;;;;;8.80;5.90;;;;;;;;;;5100825;28;20510;-75
2023/09/15 12:04:11;;;;;;;7.97;5.43;;;;;;;;;;5099793;28;20535;-75
2023/09/15 12:06:39;;;;;;;9.23;6.05;;;;;;;;;;5106679;28;20063;-74
2023/09/15 12:09:05;;;;;;;9.43;6.28;;;;;;;;;;5085362;28;20142;-75
2023/09/15 12:11:33;;;;;;;10.68;6.20;;;;;;;;;;5105051;28;20051;-74
2023/09/15 12:14:06;;;;;;;8.02;5.72;;;;;;;;;;5104602;28;20509;-74
2023/09/15 12:16:32;;;;;;;16.30;7.70;;;;;;;;;;5105325;28;20055;-74
2023/09/15 12:18:59;;;;;;;44.03;15.20;;;;;;;;;;5107083;28;20099;-74
2023/09/15 12:21:26;;;;;;;8.55;5.25;;;;;;;;;;5107524;28;20055;-74
2023/09/15 12:23:56;;;;;;;9.00;6.10;;;;;;;;;;5105236;28;20047;-74
2023/09/15 12:26:26;;;;;;;7.80;4.90;;;;;;;;;;5109622;28;20039;-74
2023/09/15 12:28:54;;;;;;;10.10;5.68;;;;;;;;;;5109054;28;20352;-74
2023/09/15 12:31:24;;;;;;;15.82;6.55;;;;;;;;;;5107755;27;20425;-74
2023/09/15 12:33:53;;;;;;;14.57;7.20;;;;;;;;;;5114066;28;20055;-72
2023/09/15 12:36:22;;;;;;;7.45;5.03;;;;;;;;;;5114759;28;20043;-73
2023/09/15 12:38:50;;;;;;;9.23;4.90;;;;;;;;;;5110571;28;20494;-77
2023/09/15 12:41:16;;;;;;;7.82;4.60;;;;;;;;;;5101101;28;20052;-73
2023/09/15 12:43:43;;;;;;;6.82;4.90;;;;;;;;;;5105341;28;20047;-73
2023/09/15 12:46:09;;;;;;;5.38;4.47;;;;;;;;;;5098556;27;20040;-73
2023/09/15 12:48:35;;;;;;;7.28;4.88;;;;;;;;;;5114699;27;20047;-73
2023/09/15 12:51:02;;;;;;;6.60;4.65;;;;;;;;;;5113456;28;20085;-73
2023/09/15 12:53:28;;;;;;;7.85;4.72;;;;;;;;;;5105360;28;20071;-73
2023/09/15 12:55:55;;;;;;;7.32;4.63;;;;;;;;;;5104086;28;20040;-73
2023/09/15 12:58:21;;;;;;;7.88;4.18;;;;;;;;;;5104327;28;20039;-73
2023/09/15 13:00:47;;;;;;;7.25;4.57;;;;;;;;;;5102349;28;20055;-73
2023/09/15 13:03:13;;;;;;;7.60;4.78;;;;;;;;;;5104298;27;20050;-73
2023/09/15 13:05:39;;;;;;;8.00;3.85;;;;;;;;;;5113748;28;20122;-73
2023/09/15 13:08:05;;;;;;;7.97;4.47;;;;;;;;;;5105484;27;20430;-73
2023/09/15 13:10:34;;;;;;;6.80;4.03;;;;;;;;;;5111333;28;20065;-73
2023/09/15 13:13:00;;;;;;;6.63;4.47;;;;;;;;;;5115327;28;20118;-73
2023/09/15 13:15:26;;;;;;;7.28;3.65;;;;;;;;;;5106456;27;20075;-73
2023/09/15 13:17:52;;;;;;;5.72;3.90;;;;;;;;;;5108218;28;20097;-77
2023/09/15 13:20:18;;;;;;;7.68;4.25;;;;;;;;;;5109575;28;20070;-74
2023/09/15 13:22:44;;;;;;;6.93;3.95;;;;;;;;;;5105122;28;20043;-75
2023/09/15 13:25:10;;;;;;;9.77;4.35;;;;;;;;;;5115193;28;20047;-74
2023/09/15 13:27:42;;;;;;;10.80;4.50;;;;;;;;;;5108100;28;20047;-74
2023/09/15 13:30:09;;;;;;;6.47;4.10;;;;;;;;;;5112008;28;20047;-74
2023/09/15 13:32:35;;;;;;;8.23;4.75;;;;;;;;;;5111035;28;20403;-74
2023/09/15 13:35:01;;;;;;;6.85;4.82;;;;;;;;;;5112867;28;20039;-74
2023/09/15 13:37:27;;;;;;;6.60;4.00;;;;;;;;;;5113384;28;20103;-74
2023/09/15 13:39:53;;;;;;;6.53;3.95;;;;;;;;;;5111005;28;20052;-75
2023/09/15 13:42:30;;;;;;;6.93;4.00;;;;;;;;;;5114850;28;20040;-74
2023/09/15 13:44:56;;;;;;;6.88;4.57;;;;;;;;;;5114548;28;20038;-74
2023/09/15 13:47:22;;;;;;;6.15;4.45;;;;;;;;;;5111921;28;20487;-74
2023/09/15 13:49:48;;;;;;;13.35;4.55;;;;;;;;;;5099600;28;20040;-74
2023/09/15 13:52:14;;;;;;;7.40;4.05;;;;;;;;;;5108551;28;20378;-76
2023/09/15 13:54:40;;;;;;;6.38;4.07;;;;;;;;;;5105834;28;20040;-74
2023/09/15 13:57:06;;;;;;;7.78;3.97;;;;;;;;;;5096999;28;20090;-74
2023/09/15 13:59:32;;;;;;;5.38;3.97;;;;;;;;;;5101822;28;20447;-74
2023/09/15 14:01:58;;;;;;;7.55;3.63;;;;;;;;;;5103137;28;20066;-74
2023/09/15 14:04:24;;;;;;;5.35;3.60;;;;;;;;;;5102596;28;20056;-74
2023/09/15 14:06:50;;;;;;;8.02;3.92;;;;;;;;;;5111822;28;20052;-74
2023/09/15 14:09:18;;;;;;;7.53;3.75;;;;;;;;;;5104945;28;20075;-74
2023/09/15 14:11:45;;;;;;;8.43;4.20;;;;;;;;;;5115425;27;20048;-77
2023/09/15 14:14:11;;;;;;;5.38;3.72;;;;;;;;;;5103104;28;20047;-77
2023/09/15 14:16:38;;;;;;;6.57;4.03;;;;;;;;;;5098525;28;20469;-75
2023/09/15 14:19:04;;;;;;;5.57;3.80;;;;;;;;;;5097273;28;20115;-75
2023/09/15 14:21:32;;;;;;;8.45;3.78;;;;;;;;;;5098768;27;20058;-75
2023/09/15 14:23:58;;;;;;;5.65;3.55;;;;;;;;;;5097801;28;20040;-75
2023/09/15 14:26:24;;;;;;;4.72;3.65;;;;;;;;;;5094615;28;20040;-75
2023/09/15 14:28:50;;;;;;;6.50;3.63;;;;;;;;;;5098014;28;20147;-75
2023/09/15 14:31:16;;;;;;;6.00;4.10;;;;;;;;;;5104793;28;20079;-75
2023/09/15 14:33:42;;;;;;;4.68;3.30;;;;;;;;;;5114063;27;20105;-75
2023/09/15 14:36:09;;;;;;;5.70;3.28;;;;;;;;;;5111583;28;20426;-75
2023/09/15 14:38:35;;;;;;;8.05;4.15;;;;;;;;;;5114553;28;20406;-75